Croswell, Michigan
Current Conditions -  °F | °C
As of 3:00 PM on Saturday 25 Oct 2014 (Local Time) from CYZR Reporting Station
Few Clouds Few Clouds  
Wind Chill: 64°   Ceiling: Unl
Heat Index: 64°   Visibility: 9mi
Dew Point: 46°   Wind: 12mph
Humidity: 52%   Direction: 270°W
Pressure: 29.69"   Gusts: 22mph
Location:  43.28°N, 82.62°W
Report Text: CYZR 251900Z AUTO 27010G19KT 250V310 9SM FEW047 18/08 A2969 RMK SLP056 DENSITY ALT 1300FT
Loading
Personal Weather Stations






























Interactive Weather Map
Tropical Storm Tracking
New forecast layout! Learn more

10-Day Weather Forecast

Advertisements
Track Severe Weather on mobile